createdAt,value
2022-10-26T00:01:15.081Z,98969.22
2022-10-26T00:03:44.458Z,98980.03
2022-10-26T00:06:13.726Z,98975.16
2022-10-26T00:08:41.384Z,98982.44
2022-10-26T00:11:09.098Z,98980.88
2022-10-26T00:13:36.846Z,98975.75
2022-10-26T00:16:16.649Z,98988.13
2022-10-26T00:18:44.507Z,98991.91
2022-10-26T00:21:12.152Z,98996.41
2022-10-26T00:23:39.538Z,98995.50
2022-10-26T00:26:07.158Z,99000.00
2022-10-26T00:28:35.029Z,98998.31
2022-10-26T00:31:03.777Z,98993.88
2022-10-26T00:33:32.508Z,99000.16
2022-10-26T00:35:59.900Z,99004.72
2022-10-26T00:38:27.019Z,99005.03
2022-10-26T00:40:53.884Z,99001.59
2022-10-26T00:43:26.839Z,99004.56
2022-10-26T00:45:56.709Z,99000.25
2022-10-26T00:48:28.631Z,98998.72
2022-10-26T00:50:58.834Z,99006.16
2022-10-26T00:53:26.539Z,99004.34
2022-10-26T00:55:54.525Z,99003.66
2022-10-26T00:58:23.297Z,99004.66
2022-10-26T01:00:50.413Z,99007.50
2022-10-26T01:03:18.317Z,99012.09
2022-10-26T01:05:47.787Z,99011.53
2022-10-26T01:08:16.908Z,99005.53
2022-10-26T01:10:44.108Z,99010.25
2022-10-26T01:13:13.205Z,99010.41
2022-10-26T01:15:51.800Z,99001.88
2022-10-26T01:18:45.558Z,99002.38
2022-10-26T01:21:30.262Z,99001.78
2022-10-26T01:24:06.501Z,99006.38
2022-10-26T01:26:45.555Z,99009.97
2022-10-26T01:29:40.373Z,99006.63
2022-10-26T01:32:14.411Z,99015.47
2022-10-26T01:34:48.970Z,99014.63
2022-10-26T01:37:28.846Z,99008.44
2022-10-26T01:40:06.126Z,99015.41
2022-10-26T01:42:37.278Z,99007.50
2022-10-26T01:45:09.520Z,99014.50
2022-10-26T01:47:39.258Z,99010.06
2022-10-26T01:50:08.873Z,99010.13
2022-10-26T01:52:35.652Z,99009.53
2022-10-26T01:55:07.740Z,99007.75
2022-10-26T01:57:36.922Z,99010.47
2022-10-26T02:00:09.646Z,99006.31
2022-10-26T02:02:59.958Z,99001.41
2022-10-26T02:05:29.868Z,99004.38
2022-10-26T02:08:08.809Z,99006.41
2022-10-26T02:10:57.590Z,99012.88
2022-10-26T02:13:45.445Z,99018.34
2022-10-26T02:16:27.735Z,99017.41
2022-10-26T02:19:12.654Z,99014.09
2022-10-26T02:21:49.030Z,99022.00
2022-10-26T02:24:17.424Z,99021.94
2022-10-26T02:26:47.290Z,99028.75
2022-10-26T02:29:18.973Z,99025.34
2022-10-26T02:31:49.247Z,99026.28
2022-10-26T02:34:22.222Z,99030.44
2022-10-26T02:36:50.919Z,99027.00
2022-10-26T02:39:19.534Z,99032.13
2022-10-26T02:41:48.860Z,99019.47
2022-10-26T02:44:27.943Z,99026.25
2022-10-26T02:46:55.820Z,99025.25
2022-10-26T02:49:22.736Z,99032.00
2022-10-26T02:51:51.914Z,99036.13
2022-10-26T02:54:33.611Z,99028.00
2022-10-26T02:57:27.037Z,99037.34
2022-10-26T02:59:54.224Z,99033.50
2022-10-26T03:02:23.262Z,99034.28
2022-10-26T03:04:51.264Z,99037.59
2022-10-26T03:07:25.374Z,99039.31
2022-10-26T03:09:52.211Z,99039.88
2022-10-26T03:12:19.237Z,99043.47
2022-10-26T03:14:46.484Z,99046.94
2022-10-26T03:17:13.456Z,99041.66
2022-10-26T03:19:40.183Z,99046.00
2022-10-26T03:22:07.139Z,99047.66
2022-10-26T03:24:34.046Z,99049.44
2022-10-26T03:27:02.300Z,99048.38
2022-10-26T03:29:29.700Z,99049.94
2022-10-26T03:31:56.689Z,99056.09
2022-10-26T03:34:23.487Z,99052.47
2022-10-26T03:36:50.501Z,99059.38
2022-10-26T03:39:17.542Z,99061.91
2022-10-26T03:41:44.614Z,99065.13
2022-10-26T03:44:11.431Z,99065.91
2022-10-26T03:46:38.381Z,99071.03
2022-10-26T03:49:05.309Z,99081.38
2022-10-26T03:51:32.333Z,99078.69
2022-10-26T03:53:59.066Z,99083.69
2022-10-26T03:56:26.140Z,99082.69
2022-10-26T03:58:52.949Z,99076.28
2022-10-26T04:01:19.975Z,99084.16
2022-10-26T04:03:46.803Z,99079.72
2022-10-26T04:06:14.409Z,99077.81
2022-10-26T04:08:41.189Z,99074.22
2022-10-26T04:11:08.195Z,99078.53
2022-10-26T04:13:35.194Z,99079.31
2022-10-26T04:16:02.192Z,99084.59
2022-10-26T04:18:28.943Z,99076.78
2022-10-26T04:20:55.982Z,99074.03
2022-10-26T04:23:22.781Z,99072.31
2022-10-26T04:25:49.718Z,99073.31
2022-10-26T04:28:16.491Z,99071.38
2022-10-26T04:30:43.553Z,99073.09
2022-10-26T04:33:10.387Z,99074.16
2022-10-26T04:35:37.432Z,99078.44
2022-10-26T04:38:06.306Z,99079.16
2022-10-26T04:40:34.318Z,99086.13
2022-10-26T04:43:01.111Z,99082.66
2022-10-26T04:45:30.826Z,99089.72
2022-10-26T04:48:00.608Z,99080.16
2022-10-26T04:50:28.495Z,99081.16
2022-10-26T04:52:55.504Z,99079.38
2022-10-26T04:55:22.573Z,99085.88
2022-10-26T04:57:49.668Z,99088.75
2022-10-26T05:00:16.914Z,99096.88
2022-10-26T05:02:43.795Z,99097.06
2022-10-26T05:05:14.135Z,99104.22
2022-10-26T05:07:42.126Z,99100.66
2022-10-26T05:10:09.846Z,99096.31
2022-10-26T05:12:36.626Z,99100.72
2022-10-26T05:15:06.473Z,99099.00
2022-10-26T05:17:35.288Z,99105.09
2022-10-26T05:20:06.003Z,99107.72
2022-10-26T05:22:32.807Z,99112.28
2022-10-26T05:24:59.812Z,99113.00
2022-10-26T05:27:26.591Z,99113.69
2022-10-26T05:29:53.593Z,99116.28
2022-10-26T05:32:20.362Z,99119.72
2022-10-26T05:34:47.994Z,99115.28
2022-10-26T05:37:14.752Z,99115.84
2022-10-26T05:39:43.456Z,99117.56
2022-10-26T05:42:10.217Z,99111.28
2022-10-26T05:44:37.152Z,99126.06
2022-10-26T05:47:03.954Z,99123.44
2022-10-26T05:49:30.906Z,99116.06
2022-10-26T05:51:57.650Z,99118.41
2022-10-26T05:54:24.704Z,99126.09
2022-10-26T05:56:51.735Z,99122.34
2022-10-26T05:59:19.018Z,99121.94
2022-10-26T06:02:04.571Z,99121.66
2022-10-26T06:04:43.134Z,99120.38
2022-10-26T06:07:15.259Z,99127.84
2022-10-26T06:09:43.014Z,99131.75
2022-10-26T06:12:13.470Z,99126.00
2022-10-26T06:14:42.934Z,99131.13
2022-10-26T06:17:41.285Z,99128.13
2022-10-26T06:20:38.146Z,99129.59
2022-10-26T06:23:41.836Z,99134.41
2022-10-26T06:26:44.263Z,99141.97
2022-10-26T06:29:35.050Z,99145.94
2022-10-26T06:32:02.218Z,99147.13
2022-10-26T06:34:44.204Z,99144.47
2022-10-26T06:37:11.410Z,99149.22
2022-10-26T06:39:44.298Z,99153.47
2022-10-26T06:42:12.009Z,99156.41
2022-10-26T06:44:39.083Z,99163.72
2022-10-26T06:47:15.447Z,99165.00
2022-10-26T06:50:23.389Z,99171.06
2022-10-26T06:53:20.540Z,99175.03
2022-10-26T06:55:49.984Z,99177.88
2022-10-26T06:58:23.859Z,99179.72
2022-10-26T07:00:53.698Z,99181.72
2022-10-26T07:03:20.961Z,99185.75
2022-10-26T07:05:47.807Z,99182.88
2022-10-26T07:08:14.859Z,99191.50
2022-10-26T07:10:42.355Z,99190.53
2022-10-26T07:13:10.840Z,99185.38
2022-10-26T07:15:39.165Z,99195.50
2022-10-26T07:18:07.943Z,99194.44
2022-10-26T07:20:38.496Z,99191.69
2022-10-26T07:23:11.502Z,99197.53
2022-10-26T07:25:40.543Z,99197.03
2022-10-26T07:28:10.532Z,99196.38
2022-10-26T07:30:39.992Z,99195.00
2022-10-26T07:33:12.371Z,99196.63
2022-10-26T07:35:40.102Z,99199.56
2022-10-26T07:38:08.421Z,99194.84
2022-10-26T07:40:37.105Z,99193.53
2022-10-26T07:43:04.854Z,99196.56
2022-10-26T07:45:31.919Z,99200.34
2022-10-26T07:47:58.932Z,99194.31
2022-10-26T07:50:26.339Z,99201.72
2022-10-26T07:52:53.642Z,99207.31
2022-10-26T07:55:20.628Z,99193.19
2022-10-26T07:57:50.972Z,99192.63
2022-10-26T08:00:21.609Z,99200.25
2022-10-26T08:02:48.595Z,99199.22
2022-10-26T08:05:15.421Z,99199.00
2022-10-26T08:07:46.182Z,99203.91
2022-10-26T08:10:14.528Z,99202.22
2022-10-26T08:12:43.298Z,99204.31
2022-10-26T08:15:10.506Z,99208.72
2022-10-26T08:17:37.511Z,99206.47
2022-10-26T08:20:04.710Z,99208.94
2022-10-26T08:22:31.866Z,99202.81
2022-10-26T08:24:58.662Z,99207.47
2022-10-26T08:27:25.936Z,99203.91
2022-10-26T08:29:52.720Z,99203.03
2022-10-26T08:32:19.736Z,99205.16
2022-10-26T08:34:46.510Z,99215.63
2022-10-26T08:37:13.527Z,99222.50
2022-10-26T08:39:40.291Z,99211.22
2022-10-26T08:42:34.329Z,99218.22
2022-10-26T08:45:07.134Z,99213.78
2022-10-26T08:47:44.134Z,99211.63
2022-10-26T08:50:39.234Z,99210.97
2022-10-26T08:53:17.565Z,99221.66
2022-10-26T08:55:53.338Z,99217.78
2022-10-26T08:58:25.959Z,99220.31
2022-10-26T09:00:53.035Z,99211.28
2022-10-26T09:03:20.114Z,99222.91
2022-10-26T09:06:25.320Z,99231.25
2022-10-26T09:08:55.060Z,99231.13
2022-10-26T09:11:21.790Z,99228.38
2022-10-26T09:14:15.356Z,99219.84
2022-10-26T09:16:50.567Z,99226.66
2022-10-26T09:19:32.014Z,99213.16
2022-10-26T09:22:04.793Z,99220.25
2022-10-26T09:24:33.741Z,99227.63
2022-10-26T09:29:42.711Z,99224.34
2022-10-26T09:32:26.920Z,99223.63
2022-10-26T09:34:58.044Z,99230.16
2022-10-26T09:37:31.910Z,99226.53
2022-10-26T09:40:11.064Z,99230.69
2022-10-26T09:42:51.503Z,99237.00
2022-10-26T09:45:24.583Z,99232.09
2022-10-26T09:47:54.707Z,99232.03
2022-10-26T09:50:29.583Z,99228.13
2022-10-26T09:52:56.715Z,99239.13
2022-10-26T09:55:23.576Z,99234.59
2022-10-26T09:57:54.215Z,99235.22
2022-10-26T10:00:23.796Z,99230.44
2022-10-26T10:02:53.801Z,99237.13
2022-10-26T10:08:23.686Z,99229.19
2022-10-26T10:10:56.878Z,99244.06
2022-10-26T10:13:26.799Z,99233.56
2022-10-26T10:16:11.354Z,99239.84
2022-10-26T10:18:40.214Z,99235.59
2022-10-26T10:21:08.355Z,99239.72
2022-10-26T10:23:46.422Z,99235.47
2022-10-26T10:26:13.222Z,99242.56
2022-10-26T10:28:42.461Z,99239.72
2022-10-26T10:31:22.609Z,99230.03
2022-10-26T10:33:49.708Z,99227.84
2022-10-26T10:36:20.375Z,99225.44
2022-10-26T10:38:49.627Z,99231.16
2022-10-26T10:41:39.439Z,99230.72
2022-10-26T10:44:25.375Z,99225.88
2022-10-26T10:47:00.810Z,99227.81
2022-10-26T10:49:30.079Z,99223.72
2022-10-26T10:51:56.945Z,99226.94
2022-10-26T10:54:35.110Z,99225.22
2022-10-26T10:57:13.759Z,99222.44
2022-10-26T11:00:07.129Z,99222.47
2022-10-26T11:03:04.369Z,99223.31
2022-10-26T11:05:55.769Z,99228.22
2022-10-26T11:08:37.897Z,99229.94
2022-10-26T11:11:10.523Z,99228.25
2022-10-26T11:13:48.709Z,99227.66
2022-10-26T11:16:23.732Z,99236.41
2022-10-26T11:19:03.094Z,99227.38
2022-10-26T11:21:31.552Z,99228.38
2022-10-26T11:23:58.346Z,99218.94
2022-10-26T11:26:33.523Z,99221.38
2022-10-26T11:29:07.416Z,99218.19
2022-10-26T11:31:44.985Z,99216.84
2022-10-26T11:34:26.561Z,99226.22
2022-10-26T11:37:05.117Z,99226.38
2022-10-26T11:39:44.016Z,99219.22
2022-10-26T11:42:19.708Z,99214.56
2022-10-26T11:44:59.428Z,99222.38
2022-10-26T11:47:44.046Z,99208.91
2022-10-26T11:50:17.649Z,99212.84
2022-10-26T11:52:51.957Z,99215.03
2022-10-26T11:55:21.046Z,99218.72
2022-10-26T11:57:48.823Z,99219.69
2022-10-26T12:00:19.081Z,99220.72
2022-10-26T12:03:09.153Z,99221.00
2022-10-26T12:05:50.623Z,99217.41
2022-10-26T12:08:27.262Z,99224.41
2022-10-26T12:11:29.725Z,99222.38
2022-10-26T12:14:32.954Z,99230.44
2022-10-26T12:17:20.992Z,99231.41
2022-10-26T12:19:47.902Z,99223.97
2022-10-26T12:22:17.544Z,99237.81
2022-10-26T12:25:11.139Z,99233.72
2022-10-26T12:27:40.763Z,99227.63
2022-10-26T12:30:19.956Z,99225.41
2022-10-26T12:32:50.071Z,99225.03
2022-10-26T12:35:37.368Z,99221.56
2022-10-26T12:38:29.034Z,99224.13
2022-10-26T12:41:10.749Z,99220.88
2022-10-26T12:43:39.999Z,99220.94
2022-10-26T12:46:13.249Z,99214.13
2022-10-26T12:48:44.768Z,99223.59
2022-10-26T12:51:26.806Z,99217.69
2022-10-26T12:54:21.245Z,99223.38
2022-10-26T12:57:06.465Z,99223.63
2022-10-26T12:59:40.731Z,99216.44
2022-10-26T13:02:37.005Z,99220.72
2022-10-26T13:05:28.490Z,99222.88
2022-10-26T13:08:03.577Z,99222.78
2022-10-26T13:10:30.844Z,99224.94
2022-10-26T13:13:01.166Z,99228.59
2022-10-26T13:15:31.211Z,99223.09
2022-10-26T13:18:09.218Z,99224.41
2022-10-26T13:20:38.072Z,99223.59
2022-10-26T13:23:19.638Z,99230.06
2022-10-26T13:26:06.038Z,99230.13
2022-10-26T13:28:38.821Z,99233.00
2022-10-26T13:31:20.982Z,99235.81
2022-10-26T13:33:52.444Z,99232.16
2022-10-26T13:36:38.702Z,99231.25
2022-10-26T13:39:13.054Z,99235.69
2022-10-26T13:41:43.726Z,99232.44
2022-10-26T13:44:25.872Z,99236.16
2022-10-26T13:46:59.442Z,99234.81
2022-10-26T13:49:36.606Z,99241.00
2022-10-26T13:52:05.742Z,99236.50
2022-10-26T13:54:44.837Z,99238.34
2022-10-26T13:57:11.484Z,99247.09
2022-10-26T13:59:43.135Z,99242.59
2022-10-26T14:02:30.576Z,99247.97
2022-10-26T14:05:02.634Z,99250.63
2022-10-26T14:07:54.145Z,99243.84
2022-10-26T14:10:29.550Z,99241.22
2022-10-26T14:12:57.642Z,99249.66
2022-10-26T14:15:30.949Z,99249.06
2022-10-26T14:17:59.857Z,99255.78
2022-10-26T14:20:28.194Z,99254.72
2022-10-26T14:22:55.090Z,99254.19
2022-10-26T14:25:42.142Z,99254.97
2022-10-26T14:28:26.419Z,99250.78
2022-10-26T14:30:53.814Z,99262.25
2022-10-26T14:33:27.660Z,99261.88
2022-10-26T14:35:55.856Z,99258.38
2022-10-26T14:38:26.997Z,99260.59
2022-10-26T14:40:57.452Z,99259.75
2022-10-26T14:43:25.948Z,99264.63
2022-10-26T14:45:54.499Z,99273.50
2022-10-26T14:48:33.283Z,99268.66
2022-10-26T14:51:28.280Z,99271.59
2022-10-26T14:53:58.837Z,99267.84
2022-10-26T14:56:34.753Z,99270.00
2022-10-26T14:59:19.179Z,99273.84
2022-10-26T15:01:55.685Z,99275.22
2022-10-26T15:04:37.698Z,99280.28
2022-10-26T15:07:09.014Z,99278.78
2022-10-26T15:09:43.169Z,99282.78
2022-10-26T15:12:23.219Z,99280.47
2022-10-26T15:14:51.303Z,99291.38
2022-10-26T15:17:24.962Z,99289.09
2022-10-26T15:19:52.323Z,99283.31
2022-10-26T15:22:30.975Z,99294.56
2022-10-26T15:25:05.803Z,99289.78
2022-10-26T15:27:33.003Z,99289.41
2022-10-26T15:30:25.525Z,99292.41
2022-10-26T15:32:55.881Z,99302.91
2022-10-26T15:35:25.918Z,99307.78
2022-10-26T15:37:55.169Z,99309.22
2022-10-26T15:40:23.261Z,99308.44
2022-10-26T15:42:52.999Z,99312.28
2022-10-26T15:45:23.954Z,99311.34
2022-10-26T15:47:52.715Z,99314.88
2022-10-26T15:50:22.399Z,99307.97
2022-10-26T15:52:50.794Z,99317.63
2022-10-26T15:55:17.782Z,99321.75
2022-10-26T15:57:45.062Z,99328.63
2022-10-26T16:00:16.957Z,99321.63
2022-10-26T16:02:45.593Z,99328.28
2022-10-26T16:05:16.094Z,99324.44
2022-10-26T16:07:46.801Z,99331.84
2022-10-26T16:10:25.184Z,99341.19
2022-10-26T16:12:52.902Z,99329.25
2022-10-26T16:15:24.852Z,99333.94
2022-10-26T16:17:52.767Z,99337.78
2022-10-26T16:20:24.650Z,99339.97
2022-10-26T16:22:52.881Z,99339.31
2022-10-26T16:25:22.844Z,99336.06
2022-10-26T16:27:50.731Z,99339.16
2022-10-26T16:30:18.963Z,99344.66
2022-10-26T16:32:46.198Z,99340.69
2022-10-26T16:35:13.522Z,99340.13
2022-10-26T16:37:40.582Z,99340.53
2022-10-26T16:40:08.569Z,99343.44
2022-10-26T16:42:35.782Z,99352.41
2022-10-26T16:45:03.201Z,99357.69
2022-10-26T16:47:35.621Z,99360.53
2022-10-26T16:50:03.881Z,99361.38
2022-10-26T16:52:31.119Z,99360.63
2022-10-26T16:54:57.883Z,99354.88
2022-10-26T16:57:24.904Z,99361.97
2022-10-26T16:59:51.812Z,99359.53
2022-10-26T17:02:18.987Z,99360.50
2022-10-26T17:04:45.918Z,99360.69
2022-10-26T17:07:12.926Z,99373.25
2022-10-26T17:09:39.714Z,99381.09
2022-10-26T17:12:07.003Z,99372.38
2022-10-26T17:14:34.369Z,99376.78
2022-10-26T17:17:01.326Z,99376.69
2022-10-26T17:19:28.119Z,99374.97
2022-10-26T17:21:55.160Z,99378.44
2022-10-26T17:24:21.895Z,99379.38
2022-10-26T17:26:48.845Z,99387.44
2022-10-26T17:29:15.706Z,99380.59
2022-10-26T17:31:42.674Z,99389.53
2022-10-26T17:34:09.422Z,99397.63
2022-10-26T17:36:36.415Z,99392.53
2022-10-26T17:39:03.355Z,99398.00
2022-10-26T17:41:30.468Z,99400.19
2022-10-26T17:43:57.259Z,99401.31
2022-10-26T17:46:26.193Z,99404.25
2022-10-26T17:49:00.497Z,99409.75
2022-10-26T17:51:29.294Z,99398.56
2022-10-26T17:53:57.109Z,99405.81
2022-10-26T17:56:26.884Z,99403.38
2022-10-26T17:58:58.930Z,99408.00
2022-10-26T18:01:27.449Z,99410.78
2022-10-26T18:03:54.871Z,99414.44
2022-10-26T18:06:22.480Z,99407.50
2022-10-26T18:08:49.368Z,99416.44
2022-10-26T18:11:26.530Z,99412.34
2022-10-26T18:13:55.867Z,99420.28
2022-10-26T18:16:25.293Z,99423.97
2022-10-26T18:19:00.295Z,99425.94
2022-10-26T18:21:29.699Z,99432.03
2022-10-26T18:23:56.545Z,99425.13
2022-10-26T18:26:26.575Z,99434.00
2022-10-26T18:28:54.153Z,99435.88
2022-10-26T18:31:22.916Z,99434.16
2022-10-26T18:33:59.123Z,99436.03
2022-10-26T18:36:27.167Z,99434.34
2022-10-26T18:38:54.580Z,99432.75
2022-10-26T18:41:23.420Z,99443.09
2022-10-26T18:43:52.970Z,99443.91
2022-10-26T18:46:25.204Z,99448.97
2022-10-26T18:48:52.725Z,99448.78
2022-10-26T18:51:25.328Z,99453.00
2022-10-26T18:53:52.418Z,99462.63
2022-10-26T18:56:21.458Z,99457.22
2022-10-26T18:58:53.554Z,99465.06
2022-10-26T19:01:25.786Z,99470.22
2022-10-26T19:03:54.821Z,99464.94
2022-10-26T19:06:23.320Z,99467.56
2022-10-26T19:08:50.120Z,99467.41
2022-10-26T19:11:19.251Z,99470.81
2022-10-26T19:13:46.599Z,99469.00
2022-10-26T19:16:33.235Z,99471.63
2022-10-26T19:19:05.834Z,99473.34
2022-10-26T19:21:32.814Z,99476.78
2022-10-26T19:24:01.281Z,99483.03
2022-10-26T19:26:34.317Z,99481.34
2022-10-26T19:29:09.841Z,99483.84
2022-10-26T19:31:37.870Z,99483.06
2022-10-26T19:34:04.980Z,99485.63
2022-10-26T19:36:32.990Z,99483.81
2022-10-26T19:38:59.948Z,99492.75
2022-10-26T19:41:28.234Z,99488.19
2022-10-26T19:43:55.674Z,99496.00
2022-10-26T19:46:25.387Z,99499.44
2022-10-26T19:48:58.549Z,99506.56
2022-10-26T19:51:27.681Z,99505.56
2022-10-26T19:53:57.829Z,99501.13
2022-10-26T19:56:27.646Z,99510.84
2022-10-26T19:58:55.805Z,99508.91
2022-10-26T20:01:23.008Z,99504.44
2022-10-26T20:03:49.812Z,99509.69
2022-10-26T20:06:18.374Z,99507.91
2022-10-26T20:08:47.249Z,99505.16
2022-10-26T20:11:16.253Z,99508.59
2022-10-26T20:13:44.771Z,99514.63
2022-10-26T20:16:12.943Z,99514.75
2022-10-26T20:18:44.043Z,99525.28
2022-10-26T20:21:15.603Z,99525.38
2022-10-26T20:23:43.420Z,99521.03
2022-10-26T20:26:18.238Z,99526.34
2022-10-26T20:28:48.381Z,99523.69
2022-10-26T20:31:15.421Z,99521.06
2022-10-26T20:33:42.304Z,99525.38
2022-10-26T20:36:09.612Z,99527.16
2022-10-26T20:38:36.845Z,99524.63
2022-10-26T20:41:07.737Z,99525.63
2022-10-26T20:43:39.061Z,99526.69
2022-10-26T20:46:07.573Z,99525.13
2022-10-26T20:48:34.762Z,99525.19
2022-10-26T20:51:08.015Z,99527.09
2022-10-26T20:53:47.208Z,99528.13
2022-10-26T20:56:23.379Z,99534.47
2022-10-26T20:58:53.425Z,99531.09
2022-10-26T21:01:27.601Z,99540.09
2022-10-26T21:03:55.971Z,99541.09
2022-10-26T21:06:23.264Z,99533.31
2022-10-26T21:08:53.891Z,99550.03
2022-10-26T21:11:22.478Z,99545.56
2022-10-26T21:13:50.428Z,99548.09
2022-10-26T21:16:17.792Z,99541.88
2022-10-26T21:18:44.643Z,99538.28
2022-10-26T21:21:11.701Z,99549.53
2022-10-26T21:23:40.650Z,99536.22
2022-10-26T21:26:08.732Z,99540.34
2022-10-26T21:28:37.921Z,99546.38
2022-10-26T21:31:10.669Z,99536.66
2022-10-26T21:33:37.732Z,99535.81
2022-10-26T21:36:07.600Z,99530.63
2022-10-26T21:38:35.112Z,99536.00
2022-10-26T21:41:09.066Z,99536.75
2022-10-26T21:43:37.513Z,99547.19
2022-10-26T21:46:04.738Z,99532.22
2022-10-26T21:48:33.722Z,99544.38
2022-10-26T21:51:02.256Z,99545.25
2022-10-26T21:53:29.398Z,99544.28
2022-10-26T21:56:11.248Z,99549.41
2022-10-26T21:58:38.686Z,99541.44
2022-10-26T22:01:09.624Z,99544.00
2022-10-26T22:03:37.421Z,99540.47
2022-10-26T22:06:05.345Z,99541.97
2022-10-26T22:08:32.217Z,99542.75
2022-10-26T22:11:04.520Z,99542.59
2022-10-26T22:13:31.260Z,99551.31
2022-10-26T22:16:09.898Z,99542.66
2022-10-26T22:18:38.832Z,99544.31
2022-10-26T22:21:07.194Z,99543.47
2022-10-26T22:23:36.553Z,99547.66
2022-10-26T22:26:27.117Z,99547.44
2022-10-26T22:28:56.213Z,99545.75
2022-10-26T22:31:27.415Z,99550.16
2022-10-26T22:33:56.506Z,99555.34
2022-10-26T22:36:24.582Z,99551.88
2022-10-26T22:38:52.025Z,99553.66
2022-10-26T22:41:20.757Z,99554.38
2022-10-26T22:43:48.057Z,99550.00
2022-10-26T22:46:17.870Z,99551.72
2022-10-26T22:48:47.736Z,99547.22
2022-10-26T22:51:17.292Z,99553.34
2022-10-26T22:53:44.092Z,99556.16
2022-10-26T22:56:12.959Z,99561.44
2022-10-26T22:58:40.511Z,99558.06
2022-10-26T23:01:13.298Z,99562.38
2022-10-26T23:03:41.084Z,99559.72
2022-10-26T23:06:10.618Z,99564.03
2022-10-26T23:08:38.229Z,99554.53
2022-10-26T23:11:08.434Z,99559.63
2022-10-26T23:13:35.867Z,99562.94
2022-10-26T23:16:08.000Z,99560.28
2022-10-26T23:18:35.853Z,99558.56
2022-10-26T23:21:04.407Z,99557.59
2022-10-26T23:23:31.473Z,99558.44
2022-10-26T23:26:10.226Z,99557.75
2022-10-26T23:28:36.999Z,99555.94
2022-10-26T23:31:04.239Z,99559.41
2022-10-26T23:33:32.037Z,99550.69
2022-10-26T23:35:59.444Z,99554.16
2022-10-26T23:38:26.277Z,99555.00
2022-10-26T23:40:55.644Z,99565.53
2022-10-26T23:43:22.762Z,99561.19
2022-10-26T23:45:50.213Z,99563.75
2022-10-26T23:48:17.628Z,99561.09
2022-10-26T23:50:46.165Z,99568.94
2022-10-26T23:53:14.477Z,99574.31
2022-10-26T23:55:43.741Z,99574.41
2022-10-26T23:58:11.401Z,99575.38
